Time;durP1;ratioP1;P1;durP2;ratioP2;P2;SDS_P1;SDS_P2;PMS_P1;PMS_P2;Temp;Humidity;BMP_temperature;BMP_pressure;BME280_temperature;BME280_humidity;BME280_pressure;Samples;Min_cycle;Max_cycle;Signal;HPM_P1;HPM_P2
2021/09/18 00:00:50;;;;;;;36.08;19.92;;;;;;;21.76;65.16;99295.84;5017910;28;20018;-76
2021/09/18 00:03:15;;;;;;;40.70;20.23;;;;;;;21.85;64.71;99282.78;5026706;28;20053;-76
2021/09/18 00:05:41;;;;;;;36.45;20.58;;;;;;;21.76;65.21;99287.75;5042949;28;20261;-77
2021/09/18 00:08:06;;;;;;;32.97;19.27;;;;;;;21.91;64.81;99288.00;5041723;28;20062;-77
2021/09/18 00:10:32;;;;;;;40.67;19.92;;;;;;;21.92;64.61;99303.13;5029911;28;20075;-76
2021/09/18 00:12:57;;;;;;;32.30;18.23;;;;;;;21.80;65.40;99309.63;5032647;28;20102;-76
2021/09/18 00:15:23;;;;;;;36.60;19.48;;;;;;;21.67;65.37;99300.00;5029415;28;20030;-77
2021/09/18 00:17:49;;;;;;;33.25;19.88;;;;;;;21.59;66.21;99311.19;5028950;28;20049;-77
2021/09/18 00:20:14;;;;;;;33.65;19.90;;;;;;;21.80;65.35;99313.16;5031824;28;20091;-76
2021/09/18 00:22:40;;;;;;;32.45;18.67;;;;;;;21.70;65.60;99317.56;5029615;28;20061;-77
2021/09/18 00:25:06;;;;;;;39.15;18.75;;;;;;;21.57;65.55;99314.13;5027439;28;20017;-77
2021/09/18 00:27:31;;;;;;;32.85;17.92;;;;;;;21.53;65.48;99288.72;5029098;28;20232;-77
2021/09/18 00:29:57;;;;;;;31.00;18.80;;;;;;;21.66;65.85;99314.53;5035784;28;20100;-77
2021/09/18 00:32:23;;;;;;;31.15;18.50;;;;;;;21.75;65.15;99317.63;5027850;28;20223;-77
2021/09/18 00:34:48;;;;;;;36.78;18.30;;;;;;;21.61;65.50;99311.75;5021537;28;20189;-77
2021/09/18 00:37:13;;;;;;;34.83;18.65;;;;;;;21.42;65.91;99295.00;5023432;28;20037;-77
2021/09/18 00:39:39;;;;;;;39.20;17.83;;;;;;;21.45;66.24;99309.88;5033306;28;20037;-76
2021/09/18 00:42:04;;;;;;;34.60;16.95;;;;;;;21.48;65.74;99302.13;5014540;28;20032;-77
2021/09/18 00:44:30;;;;;;;34.17;16.95;;;;;;;21.61;65.55;99312.56;5030009;28;20045;-76
2021/09/18 00:46:56;;;;;;;28.67;16.58;;;;;;;21.52;65.37;99313.22;5023125;28;20068;-77
2021/09/18 00:49:21;;;;;;;35.92;17.77;;;;;;;21.55;65.34;99321.63;5022063;28;20050;-77
2021/09/18 00:51:48;;;;;;;32.47;18.35;;;;;;;21.51;65.65;99325.88;5030840;28;20100;-76
2021/09/18 00:54:14;;;;;;;34.28;17.05;;;;;;;21.51;65.82;99331.25;5029973;28;20068;-77
2021/09/18 00:56:41;;;;;;;35.85;17.17;;;;;;;21.50;65.74;99332.31;5028073;28;20021;-77
2021/09/18 00:59:07;;;;;;;29.45;16.52;;;;;;;21.42;65.68;99302.28;5038007;28;20044;-77
2021/09/18 01:01:32;;;;;;;30.25;17.55;;;;;;;21.46;66.23;99316.88;5034107;28;20320;-77
2021/09/18 01:03:59;;;;;;;29.05;17.17;;;;;;;21.42;66.37;99303.09;5031589;28;20101;-77
2021/09/18 01:06:25;;;;;;;40.58;17.17;;;;;;;21.54;65.93;99298.44;5030303;28;20105;-77
2021/09/18 01:08:54;;;;;;;30.50;16.88;;;;;;;21.55;65.42;99289.31;5020000;28;20285;-77
2021/09/18 01:11:19;;;;;;;31.05;17.17;;;;;;;21.67;65.15;99311.59;5021871;28;20050;-76
2021/09/18 01:13:45;;;;;;;37.05;17.23;;;;;;;21.75;65.23;99301.47;5021291;28;20030;-77
2021/09/18 01:16:10;;;;;;;35.67;16.65;;;;;;;21.66;65.25;99280.31;5028590;28;20053;-77
2021/09/18 01:18:36;;;;;;;32.83;16.05;;;;;;;21.81;64.79;99303.19;5022655;28;20044;-77
2021/09/18 01:21:02;;;;;;;29.38;15.45;;;;;;;21.91;64.21;99296.09;5022235;28;20033;-77
2021/09/18 01:23:28;;;;;;;30.77;16.92;;;;;;;21.89;64.21;99287.44;5028389;28;20038;-77
2021/09/18 01:25:53;;;;;;;35.58;15.48;;;;;;;21.88;64.21;99291.19;5027206;28;20072;-77
2021/09/18 01:28:19;;;;;;;27.13;14.93;;;;;;;21.88;63.93;99285.00;5025069;28;20041;-77
2021/09/18 01:30:45;;;;;;;30.95;15.25;;;;;;;21.82;64.06;99259.81;5030314;28;20025;-77
2021/09/18 01:33:11;;;;;;;35.80;16.17;;;;;;;21.70;64.94;99261.78;5034411;28;20029;-76
2021/09/18 01:35:37;;;;;;;37.47;15.40;;;;;;;21.80;64.86;99280.00;5018209;28;20064;-77
2021/09/18 01:38:04;;;;;;;36.97;16.80;;;;;;;21.86;64.73;99282.53;5026734;28;20036;-77
2021/09/18 01:40:41;;;;;;;25.77;14.88;;;;;;;21.86;64.65;99274.47;5038497;28;20254;-76
2021/09/18 01:43:08;;;;;;;27.92;15.18;;;;;;;21.72;64.71;99273.13;5032732;28;20024;-77
2021/09/18 01:45:34;;;;;;;31.58;15.63;;;;;;;21.60;65.38;99275.91;5033486;28;20052;-76
2021/09/18 01:48:14;;;;;;;34.20;14.50;;;;;;;21.73;65.04;99288.25;5026425;28;20036;-77
2021/09/18 01:50:47;;;;;;;33.72;14.30;;;;;;;21.67;65.21;99294.63;5026481;28;20033;-77
2021/09/18 01:53:15;;;;;;;26.23;13.52;;;;;;;21.71;64.94;99294.94;5025457;28;20222;-77
2021/09/18 01:55:42;;;;;;;26.85;14.25;;;;;;;21.56;65.15;99277.47;5032311;28;20034;-77
2021/09/18 01:58:08;;;;;;;31.88;14.15;;;;;;;21.51;65.72;99287.34;5025097;28;20331;-76
2021/09/18 02:00:39;;;;;;;26.70;13.45;;;;;;;21.48;65.82;99288.66;5021236;28;20046;-77
2021/09/18 02:03:06;;;;;;;24.60;14.75;;;;;;;21.53;65.35;99280.66;5024167;28;20071;-77
2021/09/18 02:05:31;;;;;;;31.55;14.27;;;;;;;21.48;65.73;99283.25;5010153;28;20030;-77
2021/09/18 02:07:57;;;;;;;35.15;14.25;;;;;;;21.46;66.24;99282.69;5026440;28;20030;-77
2021/09/18 02:10:26;;;;;;;33.72;15.25;;;;;;;21.43;65.86;99266.19;5020858;28;20044;-77
2021/09/18 02:12:52;;;;;;;36.10;13.95;;;;;;;21.61;65.68;99268.66;5022753;28;20032;-77
2021/09/18 02:15:18;;;;;;;30.50;13.75;;;;;;;21.57;65.85;99272.91;5026063;28;20025;-77
2021/09/18 02:17:44;;;;;;;23.85;12.43;;;;;;;21.61;65.72;99284.81;5030995;28;20029;-77
2021/09/18 02:20:13;;;;;;;33.97;14.13;;;;;;;21.54;66.23;99287.66;5030683;28;20029;-77
2021/09/18 02:22:39;;;;;;;25.70;14.05;;;;;;;21.59;65.75;99266.19;5040875;28;20029;-77
2021/09/18 02:25:06;;;;;;;27.58;14.57;;;;;;;21.76;65.43;99289.63;5038193;28;21248;-77
2021/09/18 02:27:31;;;;;;;27.83;14.32;;;;;;;21.59;66.05;99303.09;5028958;28;20037;-77
2021/09/18 02:29:57;;;;;;;28.20;13.70;;;;;;;21.52;66.38;99295.19;5034173;28;20075;-77
2021/09/18 02:32:22;;;;;;;34.40;15.05;;;;;;;21.63;66.48;99294.28;5040697;28;20080;-77
2021/09/18 02:34:48;;;;;;;33.13;13.65;;;;;;;21.74;65.74;99280.97;5024836;28;20024;-77
2021/09/18 02:37:13;;;;;;;27.83;14.85;;;;;;;21.89;65.12;99289.31;5030560;28;20048;-77
2021/09/18 02:39:40;;;;;;;24.08;13.98;;;;;;;21.80;65.48;99285.38;5025861;28;20034;-77
2021/09/18 02:42:06;;;;;;;27.15;14.15;;;;;;;21.70;65.89;99294.13;5030925;28;20041;-76
2021/09/18 02:44:31;;;;;;;28.55;14.18;;;;;;;21.63;66.50;99315.03;5034241;28;20037;-76
2021/09/18 02:46:57;;;;;;;24.88;14.20;;;;;;;21.50;66.82;99302.69;5030547;28;20045;-76
2021/09/18 02:49:22;;;;;;;26.92;14.73;;;;;;;21.41;67.30;99295.25;5033232;28;20680;-77
2021/09/18 02:51:48;;;;;;;27.88;14.18;;;;;;;21.51;67.30;99301.63;5032879;28;20018;-77
2021/09/18 02:54:13;;;;;;;34.42;14.45;;;;;;;21.55;66.79;99292.00;5026920;28;20064;-76
2021/09/18 02:56:38;;;;;;;25.42;14.43;;;;;;;21.47;66.86;99278.94;5031773;28;20029;-76
2021/09/18 02:59:04;;;;;;;29.80;13.85;;;;;;;21.54;66.88;99284.16;5033909;28;20225;-77
2021/09/18 03:01:29;;;;;;;27.30;13.60;;;;;;;21.61;66.89;99284.81;5041226;28;20049;-77
2021/09/18 03:03:55;;;;;;;25.90;13.50;;;;;;;21.57;66.31;99287.19;5032836;28;20041;-77
2021/09/18 03:06:20;;;;;;;27.83;13.90;;;;;;;21.54;66.67;99311.91;5024839;28;20034;-77
2021/09/18 03:08:46;;;;;;;30.13;13.77;;;;;;;21.50;67.24;99321.53;5024216;28;20262;-77
2021/09/18 03:11:11;;;;;;;26.45;13.20;;;;;;;21.53;66.94;99310.28;5027435;28;20030;-77
2021/09/18 03:13:37;;;;;;;26.75;13.18;;;;;;;21.48;67.31;99315.59;5031980;28;20045;-76
2021/09/18 03:16:03;;;;;;;28.85;14.18;;;;;;;21.39;67.54;99311.66;5032575;28;20025;-76
2021/09/18 03:18:29;;;;;;;34.08;13.52;;;;;;;21.44;66.83;99300.16;5036029;28;20025;-76
2021/09/18 03:20:54;;;;;;;30.73;13.77;;;;;;;21.47;66.90;99316.63;5033296;28;20327;-76
2021/09/18 03:23:20;;;;;;;36.40;13.27;;;;;;;21.53;66.37;99310.28;5029058;28;20294;-76
2021/09/18 03:25:45;;;;;;;24.42;12.52;;;;;;;21.39;66.30;99294.69;5029445;28;20034;-76
2021/09/18 03:28:11;;;;;;;32.40;12.15;;;;;;;21.34;67.04;99301.59;5039889;28;20096;-76
2021/09/18 03:30:37;;;;;;;23.38;13.10;;;;;;;21.22;67.38;99294.63;5035495;28;20039;-76
2021/09/18 03:33:02;;;;;;;28.23;13.40;;;;;;;21.18;68.16;99312.31;5026331;28;20038;-76
2021/09/18 03:35:28;;;;;;;30.25;12.65;;;;;;;21.15;68.30;99310.09;5034860;28;20436;-76
2021/09/18 03:37:54;;;;;;;28.80;12.40;;;;;;;21.18;68.14;99312.31;5039683;28;20037;-77
2021/09/18 03:40:20;;;;;;;34.92;12.82;;;;;;;21.23;67.99;99305.19;5043530;28;20060;-76
2021/09/18 03:42:45;;;;;;;26.10;12.20;;;;;;;21.39;67.17;99303.56;5037664;28;20045;-76
2021/09/18 03:45:11;;;;;;;32.25;12.52;;;;;;;21.16;66.85;99276.75;5033624;28;20030;-77
2021/09/18 03:47:37;;;;;;;26.00;12.07;;;;;;;21.37;66.64;99288.72;5040919;28;20203;-76
2021/09/18 03:50:04;;;;;;;33.03;12.10;;;;;;;21.46;65.71;99281.88;5016556;28;20037;-76
2021/09/18 03:52:30;;;;;;;30.48;11.40;;;;;;;21.50;64.99;99274.94;5039894;28;20038;-77
2021/09/18 03:54:55;;;;;;;22.92;11.40;;;;;;;21.57;65.14;99294.44;5032609;28;20040;-77
2021/09/18 03:57:22;;;;;;;24.75;11.00;;;;;;;21.57;64.86;99292.56;5033831;28;20049;-76
2021/09/18 03:59:47;;;;;;;34.25;11.68;;;;;;;21.80;63.49;99270.03;5037144;28;20029;-77
2021/09/18 04:02:13;;;;;;;29.08;12.90;;;;;;;21.75;63.91;99271.81;5029771;28;20389;-76
2021/09/18 04:04:38;;;;;;;29.50;12.23;;;;;;;21.66;64.31;99266.03;5025422;28;20037;-77
2021/09/18 04:07:04;;;;;;;27.92;12.27;;;;;;;21.58;64.72;99251.09;5036290;28;20022;-76
2021/09/18 04:09:30;;;;;;;36.75;13.75;;;;;;;21.47;64.99;99253.88;5027558;28;20073;-76
2021/09/18 04:11:55;;;;;;;27.83;12.57;;;;;;;21.39;65.40;99254.28;5029713;28;20049;-76
2021/09/18 04:14:21;;;;;;;30.13;13.35;;;;;;;21.26;66.00;99244.63;5034470;28;20301;-76
2021/09/18 04:16:47;;;;;;;36.60;15.82;;;;;;;21.27;66.23;99255.16;5038740;28;20101;-76
2021/09/18 04:19:12;;;;;;;49.33;16.45;;;;;;;21.13;65.94;99243.03;5031239;28;20052;-76
2021/09/18 04:21:38;;;;;;;42.90;16.02;;;;;;;21.27;65.86;99244.41;5030229;28;20018;-76
2021/09/18 04:24:04;;;;;;;29.75;15.98;;;;;;;21.37;65.45;99246.44;5029430;28;20056;-76
2021/09/18 04:26:31;;;;;;;29.90;15.60;;;;;;;21.25;65.46;99251.91;5034129;28;20033;-77
2021/09/18 04:28:58;;;;;;;31.80;16.83;;;;;;;21.01;65.71;99231.53;5034711;28;20026;-77
2021/09/18 04:31:24;;;;;;;34.55;16.08;;;;;;;20.92;66.58;99255.31;5035518;28;20040;-77
2021/09/18 04:33:50;;;;;;;31.48;16.33;;;;;;;20.62;67.22;99246.63;5031245;28;20030;-76
2021/09/18 04:36:15;;;;;;;36.20;16.15;;;;;;;20.68;67.64;99259.13;5028822;28;20473;-76
2021/09/18 04:38:41;;;;;;;36.03;16.92;;;;;;;20.65;68.21;99265.00;5020110;28;20056;-76
2021/09/18 04:41:06;;;;;;;39.75;19.20;;;;;;;20.71;68.18;99269.41;5028017;28;20299;-77
2021/09/18 04:43:32;;;;;;;38.30;17.77;;;;;;;20.76;68.10;99268.69;5022580;28;20029;-76
2021/09/18 04:45:58;;;;;;;36.17;17.17;;;;;;;20.75;68.47;99265.19;5023000;28;20048;-77
2021/09/18 04:48:23;;;;;;;38.25;17.58;;;;;;;20.72;68.50;99282.63;5028759;28;20056;-76
2021/09/18 04:50:49;;;;;;;42.72;18.92;;;;;;;20.94;68.02;99282.81;5032304;28;20291;-76
2021/09/18 04:53:15;;;;;;;41.67;18.65;;;;;;;20.65;69.70;99290.03;5037084;28;20331;-76
2021/09/18 04:55:41;;;;;;;35.08;18.88;;;;;;;20.53;70.41;99286.53;5031917;28;20025;-76
2021/09/18 04:58:06;;;;;;;55.38;24.92;;;;;;;20.53;70.65;99265.03;5025474;28;20233;-76
2021/09/18 05:00:32;;;;;;;64.57;35.28;;;;;;;20.67;70.85;99282.53;5028336;28;20021;-76
2021/09/18 05:02:57;;;;;;;78.47;37.45;;;;;;;20.68;70.70;99280.66;5034940;28;20105;-76
2021/09/18 05:05:22;;;;;;;93.43;40.28;;;;;;;20.88;70.45;99281.09;5033344;28;20040;-76
2021/09/18 05:07:48;;;;;;;88.35;41.38;;;;;;;21.01;70.08;99285.34;5027376;28;20034;-76
2021/09/18 05:10:13;;;;;;;65.10;32.90;;;;;;;21.02;69.51;99281.59;5032171;28;20037;-76
2021/09/18 05:12:42;;;;;;;55.58;26.52;;;;;;;20.96;70.73;99288.78;5032505;28;20029;-76
2021/09/18 05:15:08;;;;;;;42.30;18.73;;;;;;;20.93;70.14;99278.50;5039741;28;20188;-76
2021/09/18 05:17:33;;;;;;;41.92;18.55;;;;;;;20.86;70.73;99275.13;5022352;28;20038;-76
2021/09/18 05:19:59;;;;;;;42.63;19.48;;;;;;;20.89;70.49;99265.75;5022482;28;20037;-76
2021/09/18 05:22:25;;;;;;;32.45;18.27;;;;;;;21.17;70.37;99281.06;5037184;28;20038;-76
2021/09/18 05:24:51;;;;;;;37.38;18.60;;;;;;;21.47;68.66;99287.00;5033730;28;20060;-76
2021/09/18 05:27:17;;;;;;;40.10;17.52;;;;;;;21.97;67.64;99280.81;5032459;28;20034;-77
2021/09/18 05:29:44;;;;;;;35.25;17.70;;;;;;;22.12;66.83;99286.47;5035504;28;20049;-76
2021/09/18 05:32:10;;;;;;;35.90;18.00;;;;;;;22.12;66.43;99297.25;5039993;28;20056;-76
2021/09/18 05:34:35;;;;;;;55.50;18.98;;;;;;;21.88;67.19;99287.69;5042237;28;20041;-76
2021/09/18 05:37:01;;;;;;;34.08;17.30;;;;;;;21.76;67.01;99303.09;5042198;28;20029;-76
2021/09/18 05:39:26;;;;;;;41.72;17.85;;;;;;;21.85;66.78;99307.88;5041166;28;20025;-76
2021/09/18 05:41:52;;;;;;;34.72;16.45;;;;;;;21.90;66.60;99299.84;5042447;28;20080;-77
2021/09/18 05:44:17;;;;;;;48.55;16.92;;;;;;;21.92;66.58;99299.63;5042111;28;20315;-77
2021/09/18 05:46:43;;;;;;;39.65;15.65;;;;;;;22.16;66.23;99316.44;5042301;28;20192;-77
2021/09/18 05:49:08;;;;;;;41.83;15.38;;;;;;;22.21;65.80;99330.00;5042155;28;20049;-76
2021/09/18 05:51:34;;;;;;;46.50;14.40;;;;;;;22.40;64.95;99322.44;5042199;28;20029;-76
2021/09/18 05:53:59;;;;;;;34.53;15.13;;;;;;;22.70;63.38;99301.25;5042489;28;20053;-77
2021/09/18 05:56:25;;;;;;;37.15;12.63;;;;;;;22.75;63.26;99316.69;5040863;28;20056;-76
2021/09/18 05:58:50;;;;;;;33.75;13.43;;;;;;;22.75;63.31;99303.19;5042312;28;20041;-76
2021/09/18 06:01:16;;;;;;;29.55;12.15;;;;;;;22.98;63.43;99315.66;5042496;28;20032;-77
2021/09/18 06:03:41;;;;;;;39.75;12.40;;;;;;;23.09;62.44;99287.69;5042276;28;20041;-75
2021/09/18 06:06:07;;;;;;;38.55;12.23;;;;;;;23.35;62.61;99323.88;5041819;28;20259;-76
2021/09/18 06:08:32;;;;;;;38.33;12.43;;;;;;;23.32;62.79;99319.78;5042260;28;20044;-76
2021/09/18 06:10:58;;;;;;;38.55;12.57;;;;;;;23.40;62.63;99324.75;5041877;28;20200;-75
2021/09/18 06:13:24;;;;;;;31.10;11.52;;;;;;;23.36;62.56;99312.81;5041726;28;20111;-77
2021/09/18 06:15:49;;;;;;;42.13;11.68;;;;;;;23.37;62.62;99314.44;5024300;28;20025;-77
2021/09/18 06:18:15;;;;;;;27.23;10.80;;;;;;;23.42;62.56;99314.50;5039111;28;20069;-77
2021/09/18 06:20:40;;;;;;;44.53;11.95;;;;;;;23.50;62.48;99314.03;5039785;28;20260;-77
2021/09/18 06:23:06;;;;;;;30.25;12.13;;;;;;;23.67;62.42;99315.81;5036592;28;20037;-77
2021/09/18 06:25:31;;;;;;;36.10;11.88;;;;;;;23.84;62.12;99324.59;5026855;28;20018;-77
2021/09/18 06:27:56;;;;;;;35.00;9.43;;;;;;;23.64;62.12;99322.53;5017115;28;21277;-79
2021/09/18 06:30:22;;;;;;;29.40;8.93;;;;;;;23.74;61.73;99338.84;5039310;28;20041;-77
2021/09/18 06:32:47;;;;;;;31.00;9.20;;;;;;;23.72;60.77;99341.00;5043554;28;20249;-76
2021/09/18 06:35:13;;;;;;;32.97;9.75;;;;;;;23.72;61.56;99359.09;5034841;28;20021;-77
2021/09/18 06:37:44;;;;;;;23.88;8.07;;;;;;;23.81;61.39;99354.84;5025171;28;20041;-77
2021/09/18 06:40:14;;;;;;;32.55;8.65;;;;;;;23.92;61.43;99361.16;5026385;28;20065;-77
2021/09/18 06:42:40;;;;;;;40.10;9.20;;;;;;;23.93;61.75;99369.03;5033001;28;20369;-77
2021/09/18 06:45:07;;;;;;;26.08;8.55;;;;;;;24.00;60.76;99369.66;5023497;28;20037;-77
2021/09/18 06:47:33;;;;;;;20.92;7.45;;;;;;;23.85;60.28;99370.31;5035869;28;20235;-76
2021/09/18 06:49:58;;;;;;;27.70;7.88;;;;;;;23.88;60.06;99372.50;5029381;28;20080;-77
2021/09/18 06:52:24;;;;;;;26.35;7.05;;;;;;;23.88;59.68;99361.69;5035448;28;20075;-76
2021/09/18 06:54:49;;;;;;;27.17;7.40;;;;;;;23.80;60.02;99356.75;5028484;28;20030;-77
2021/09/18 06:57:15;;;;;;;22.88;6.47;;;;;;;23.85;59.62;99356.78;5024458;28;20030;-77
2021/09/18 06:59:40;;;;;;;22.23;6.55;;;;;;;23.99;59.36;99359.91;5029627;28;20056;-77
2021/09/18 07:02:08;;;;;;;27.02;6.05;;;;;;;24.03;58.75;99352.09;5031479;28;20033;-77
2021/09/18 07:04:35;;;;;;;18.90;5.63;;;;;;;23.81;58.25;99322.41;5028066;28;20323;-77
2021/09/18 07:07:02;;;;;;;28.30;5.70;;;;;;;23.99;58.04;99351.78;5032972;28;20037;-77
2021/09/18 07:09:28;;;;;;;23.45;5.85;;;;;;;24.08;57.77;99347.53;5029027;28;20036;-77
2021/09/18 07:11:53;;;;;;;22.98;6.55;;;;;;;24.11;57.62;99348.91;5039140;28;20029;-76
2021/09/18 07:14:19;;;;;;;22.38;6.00;;;;;;;24.30;57.35;99343.91;5030308;28;20026;-76
2021/09/18 07:16:44;;;;;;;25.70;6.35;;;;;;;24.27;57.44;99349.84;5034907;28;20041;-76
2021/09/18 07:19:10;;;;;;;26.08;6.43;;;;;;;24.18;57.48;99335.97;5030182;28;20065;-77
2021/09/18 07:21:35;;;;;;;37.72;7.13;;;;;;;24.41;57.64;99354.53;5041408;28;20319;-77
2021/09/18 07:24:01;;;;;;;18.55;5.65;;;;;;;24.49;57.30;99355.94;5035101;28;20033;-76
2021/09/18 07:26:27;;;;;;;25.52;5.35;;;;;;;24.69;56.35;99323.53;5028736;28;20026;-77
2021/09/18 07:28:52;;;;;;;20.17;5.68;;;;;;;25.25;55.23;99342.75;5038809;28;20093;-77
2021/09/18 07:31:18;;;;;;;26.30;6.65;;;;;;;25.55;54.08;99327.59;5038000;28;20083;-77
2021/09/18 07:33:43;;;;;;;25.30;6.95;;;;;;;25.60;53.78;99336.56;5039991;28;20040;-77
2021/09/18 07:36:09;;;;;;;18.15;6.00;;;;;;;25.78;53.42;99333.34;5027525;28;20052;-77
2021/09/18 07:38:34;;;;;;;19.65;5.28;;;;;;;25.88;52.74;99342.56;5032908;28;20101;-76
2021/09/18 07:41:00;;;;;;;18.23;6.22;;;;;;;25.94;52.64;99339.56;5037161;28;20218;-77
2021/09/18 07:43:25;;;;;;;19.20;6.15;;;;;;;26.00;52.72;99341.19;5025936;28;20315;-77
2021/09/18 07:45:50;;;;;;;24.58;6.68;;;;;;;25.96;52.46;99347.44;5030498;28;20776;-77
2021/09/18 07:48:16;;;;;;;19.52;6.63;;;;;;;26.22;51.81;99351.78;5032304;28;20099;-76
2021/09/18 07:50:41;;;;;;;20.85;5.22;;;;;;;26.16;51.56;99346.63;5031896;28;20036;-77
2021/09/18 07:53:11;;;;;;;21.88;5.85;;;;;;;26.14;51.62;99343.38;5025527;28;20295;-77
2021/09/18 07:55:37;;;;;;;21.10;6.00;;;;;;;26.20;52.28;99351.25;5032829;28;20072;-76
2021/09/18 07:58:02;;;;;;;20.60;5.28;;;;;;;26.26;51.13;99343.91;5030247;28;20037;-77
2021/09/18 08:00:28;;;;;;;26.58;6.05;;;;;;;26.30;50.55;99336.84;5029363;28;20033;-77
2021/09/18 08:02:55;;;;;;;18.52;5.38;;;;;;;26.39;51.07;99335.22;5043474;28;20060;-77
2021/09/18 08:05:22;;;;;;;23.27;6.43;;;;;;;26.34;51.32;99340.66;5043033;28;20131;-77
2021/09/18 08:07:47;;;;;;;20.98;6.15;;;;;;;26.22;51.26;99321.13;5031315;28;20144;-77
2021/09/18 08:10:15;;;;;;;20.83;6.18;;;;;;;26.32;52.04;99340.09;5035519;28;20033;-77
2021/09/18 08:12:45;;;;;;;25.40;6.95;;;;;;;26.40;50.37;99328.69;5031817;28;20041;-77
2021/09/18 08:15:11;;;;;;;21.58;5.90;;;;;;;26.42;50.57;99328.41;5034531;28;20314;-77
2021/09/18 08:17:36;;;;;;;23.58;6.03;;;;;;;26.36;50.93;99320.28;5025017;28;20049;-77
2021/09/18 08:20:03;;;;;;;20.65;5.50;;;;;;;26.38;50.98;99317.31;5031989;28;20033;-77
2021/09/18 08:22:29;;;;;;;17.38;5.63;;;;;;;26.45;50.54;99306.97;5033047;28;20068;-77
2021/09/18 08:24:55;;;;;;;27.45;6.75;;;;;;;26.19;50.07;99302.66;5036625;28;20040;-78
2021/09/18 08:27:21;;;;;;;27.88;5.53;;;;;;;26.27;49.91;99305.63;5033188;28;20038;-78
2021/09/18 08:29:46;;;;;;;18.85;6.63;;;;;;;26.31;50.48;99322.19;5023002;28;20021;-77
2021/09/18 08:32:12;;;;;;;26.05;6.82;;;;;;;26.43;51.08;99320.00;5036277;28;20021;-77
2021/09/18 08:34:37;;;;;;;16.90;5.32;;;;;;;26.19;50.99;99300.75;5038019;28;20091;-77
2021/09/18 08:37:03;;;;;;;20.92;6.38;;;;;;;26.12;51.02;99304.84;5029956;28;20044;-77
2021/09/18 08:39:28;;;;;;;18.17;6.47;;;;;;;26.17;51.30;99321.94;5035263;28;20391;-77
2021/09/18 08:41:53;;;;;;;22.83;5.05;;;;;;;25.98;50.56;99307.28;5034165;28;20025;-76
2021/09/18 08:44:19;;;;;;;19.63;4.60;;;;;;;25.98;50.98;99299.16;5032137;28;20027;-77
2021/09/18 08:46:46;;;;;;;28.50;5.82;;;;;;;25.82;51.30;99290.22;5034820;28;20052;-77
2021/09/18 08:49:12;;;;;;;14.40;5.13;;;;;;;26.05;50.69;99300.53;5030246;28;20042;-76
2021/09/18 08:51:40;;;;;;;11.18;3.90;;;;;;;26.02;50.51;99297.53;5025111;28;20350;-77
2021/09/18 08:54:06;;;;;;;19.05;4.07;;;;;;;26.13;49.84;99293.72;5033142;28;20049;-77
2021/09/18 08:56:32;;;;;;;17.85;4.65;;;;;;;26.10;50.14;99280.72;5043190;28;20096;-77
2021/09/18 08:58:58;;;;;;;14.13;3.80;;;;;;;26.21;50.83;99305.91;5043086;28;20044;-77
2021/09/18 09:01:26;;;;;;;15.52;4.53;;;;;;;26.28;50.84;99296.41;5041807;28;20211;-77
2021/09/18 09:03:57;;;;;;;14.45;4.22;;;;;;;26.38;49.86;99287.44;5043615;28;20043;-77
2021/09/18 09:06:24;;;;;;;15.95;5.07;;;;;;;26.57;50.55;99272.16;5042497;28;20029;-77
2021/09/18 09:08:57;;;;;;;14.55;5.35;;;;;;;26.86;49.45;99288.59;5025268;28;20457;-77
2021/09/18 09:11:27;;;;;;;22.70;4.82;;;;;;;26.69;49.86;99282.69;5042868;28;20048;-77
2021/09/18 09:13:55;;;;;;;22.08;5.35;;;;;;;26.73;50.12;99286.50;5042989;28;20049;-77
2021/09/18 09:16:21;;;;;;;12.95;5.13;;;;;;;26.77;50.09;99284.03;5042570;28;20033;-77
2021/09/18 09:18:47;;;;;;;15.98;6.20;;;;;;;26.75;50.17;99269.91;5041489;28;20266;-77
2021/09/18 09:21:22;;;;;;;19.45;8.95;;;;;;;26.90;50.29;99270.63;5042733;28;20037;-77
2021/09/18 09:24:12;;;;;;;14.20;6.70;;;;;;;26.56;49.57;99251.53;5042794;28;20029;-77
2021/09/18 09:26:42;;;;;;;18.15;4.97;;;;;;;26.75;49.04;99259.84;5042305;28;20041;-77
2021/09/18 09:29:08;;;;;;;16.60;4.78;;;;;;;26.81;49.07;99250.59;5041668;28;20029;-77
2021/09/18 09:31:37;;;;;;;15.35;4.45;;;;;;;27.15;47.85;99252.63;5025224;28;20025;-77
2021/09/18 09:34:20;;;;;;;17.98;5.60;;;;;;;27.25;47.52;99247.91;5042627;28;20045;-77
2021/09/18 09:36:51;;;;;;;21.77;8.60;;;;;;;27.46;47.15;99245.84;5042586;28;20265;-77
2021/09/18 09:39:25;;;;;;;16.90;6.40;;;;;;;27.61;47.25;99253.09;5042348;28;20041;-77
2021/09/18 09:41:53;;;;;;;16.50;5.45;;;;;;;27.87;45.99;99245.50;5042373;28;20044;-77
2021/09/18 09:44:25;;;;;;;16.02;4.05;;;;;;;27.96;44.97;99258.19;5028937;28;20025;-77
2021/09/18 09:47:07;;;;;;;19.60;4.90;;;;;;;27.99;44.98;99254.88;5042425;28;20033;-77
2021/09/18 09:49:44;;;;;;;18.88;5.68;;;;;;;28.01;46.02;99259.22;5042031;28;20037;-77
2021/09/18 09:52:32;;;;;;;11.80;4.20;;;;;;;28.22;46.06;99247.88;5042441;28;20108;-77
2021/09/18 09:55:06;;;;;;;15.73;4.43;;;;;;;28.19;44.47;99215.78;5042129;28;20096;-77
2021/09/18 09:57:31;;;;;;;13.25;3.75;;;;;;;28.55;43.37;99224.34;5040711;28;20033;-77
2021/09/18 10:00:05;;;;;;;15.43;2.97;;;;;;;28.57;41.10;99218.59;5041929;28;20345;-77
2021/09/18 10:02:30;;;;;;;15.43;3.78;;;;;;;28.51;42.58;99217.84;5018735;28;20057;-77
2021/09/18 10:04:56;;;;;;;12.48;3.50;;;;;;;28.70;41.07;99231.50;5028814;28;20026;-77
2021/09/18 10:07:21;;;;;;;13.15;3.50;;;;;;;28.78;41.07;99219.94;5038697;28;20033;-77
2021/09/18 10:09:47;;;;;;;13.45;3.50;;;;;;;28.82;40.59;99231.06;5042015;28;20032;-77
2021/09/18 10:12:14;;;;;;;11.73;3.30;;;;;;;28.91;40.17;99232.84;5042146;28;20060;-77
2021/09/18 10:14:45;;;;;;;6.30;3.00;;;;;;;29.00;40.60;99227.56;5041788;28;20100;-76
2021/09/18 10:17:11;;;;;;;9.95;3.63;;;;;;;28.84;40.85;99229.69;5041308;28;20060;-76
2021/09/18 10:25:12;;;;;;;13.38;7.07;;;;;;;28.70;41.95;99247.84;5041458;28;20028;-76
2021/09/18 10:27:37;;;;;;;12.05;3.38;;;;;;;29.07;41.30;99248.97;5041724;28;20033;-76
2021/09/18 10:30:04;;;;;;;16.90;4.22;;;;;;;29.22;41.34;99248.78;5041313;28;20052;-76
2021/09/18 10:32:46;;;;;;;10.02;3.83;;;;;;;29.47;39.62;99248.41;5041870;28;20042;-77
2021/09/18 10:35:14;;;;;;;13.13;3.85;;;;;;;29.24;39.72;99247.38;5024020;28;20419;-77
2021/09/18 10:37:40;;;;;;;14.90;3.50;;;;;;;29.30;39.82;99233.66;5041402;28;20037;-76
2021/09/18 10:40:12;;;;;;;9.77;3.55;;;;;;;29.15;40.14;99202.00;5040510;28;20018;-76
2021/09/18 10:42:42;;;;;;;9.70;3.33;;;;;;;29.09;40.40;99206.69;5041713;28;20231;-77
2021/09/18 10:45:10;;;;;;;8.82;3.35;;;;;;;29.16;41.33;99198.97;5041697;28;20029;-77
2021/09/18 10:47:41;;;;;;;18.13;3.40;;;;;;;28.96;41.67;99196.53;5041783;28;20033;-76
2021/09/18 10:50:26;;;;;;;12.75;3.75;;;;;;;28.99;42.23;99206.03;5041296;28;20045;-76
2021/09/18 10:53:00;;;;;;;14.63;4.15;;;;;;;28.84;42.50;99210.63;5041684;28;20042;-77
2021/09/18 10:55:26;;;;;;;14.98;4.28;;;;;;;28.85;42.76;99195.88;5041664;28;20034;-77
2021/09/18 10:57:51;;;;;;;20.40;4.28;;;;;;;28.78;42.88;99216.41;5041372;28;20352;-76
2021/09/18 11:00:23;;;;;;;14.35;3.70;;;;;;;28.68;43.27;99214.63;5041578;28;20346;-77
2021/09/18 11:02:52;;;;;;;15.73;4.18;;;;;;;28.59;43.61;99230.00;5041659;28;20048;-76
2021/09/18 11:05:18;;;;;;;12.05;4.20;;;;;;;28.57;43.88;99218.59;5023800;28;20070;-76
2021/09/18 11:07:45;;;;;;;14.45;4.07;;;;;;;28.46;43.82;99228.81;5040207;28;20030;-77
2021/09/18 11:10:20;;;;;;;13.13;4.35;;;;;;;28.32;44.19;99219.75;5041440;28;20067;-77
2021/09/18 11:13:08;;;;;;;24.95;4.10;;;;;;;28.37;44.62;99221.59;5041440;28;20049;-78
2021/09/18 11:15:49;;;;;;;14.32;4.32;;;;;;;28.48;44.03;99223.06;5026822;28;20041;-77
2021/09/18 11:18:36;;;;;;;11.90;4.18;;;;;;;28.62;43.60;99226.69;5042702;28;20915;-76
2021/09/18 11:21:12;;;;;;;11.50;4.03;;;;;;;28.63;43.09;99232.97;5037198;28;20029;-76
2021/09/18 11:23:55;;;;;;;14.45;4.60;;;;;;;28.78;42.46;99243.66;5044375;28;20101;-77
2021/09/18 11:26:31;;;;;;;12.10;4.38;;;;;;;28.66;42.53;99237.81;5038052;28;20049;-76